createdAt,value
2018-04-02T00:00:37.080Z,100509.45
2018-04-02T00:03:05.346Z,100516.81
2018-04-02T00:05:33.725Z,100518.89
2018-04-02T00:08:02.017Z,100515.38
2018-04-02T00:10:30.345Z,100519.09
2018-04-02T00:12:58.821Z,100520.34
2018-04-02T00:15:27.145Z,100520.58
2018-04-02T00:17:55.767Z,100522.95
2018-04-02T00:20:24.049Z,100520.33
2018-04-02T00:22:52.324Z,100526.76
2018-04-02T00:25:20.623Z,100529.31
2018-04-02T00:27:49.052Z,100526.09
2018-04-02T00:30:17.685Z,100533.11
2018-04-02T00:32:46.153Z,100536.86
2018-04-02T00:35:14.660Z,100538.27
2018-04-02T00:37:42.969Z,100539.55
2018-04-02T00:40:11.397Z,100540.59
2018-04-02T00:42:39.740Z,100552.07
2018-04-02T00:45:08.032Z,100544.89
2018-04-02T00:47:36.332Z,100545.39
2018-04-02T00:50:04.612Z,100547.17
2018-04-02T00:52:33.081Z,100544.88
2018-04-02T00:55:01.331Z,100540.91
2018-04-02T00:57:29.989Z,100543.94
2018-04-02T00:59:58.392Z,100547.20
2018-04-02T01:02:26.721Z,100548.08
2018-04-02T01:04:55.006Z,100552.91
2018-04-02T01:07:23.359Z,100558.73
2018-04-02T01:09:51.671Z,100561.02
2018-04-02T01:12:20.062Z,100566.58
2018-04-02T01:14:48.590Z,100567.38
2018-04-02T01:17:17.078Z,100566.19
2018-04-02T01:20:59.583Z,100561.75
2018-04-02T01:23:27.984Z,100565.17
2018-04-02T01:25:56.365Z,100569.09
2018-04-02T01:28:24.700Z,100574.22
2018-04-02T01:30:53.035Z,100580.75
2018-04-02T01:33:21.273Z,100579.95
2018-04-02T01:35:49.580Z,100581.30
2018-04-02T01:38:17.850Z,100589.52
2018-04-02T01:40:46.224Z,100589.02
2018-04-02T01:43:14.649Z,100589.79
2018-04-02T01:45:42.985Z,100598.66
2018-04-02T01:48:11.504Z,100604.14
2018-04-02T01:50:39.933Z,100593.78
2018-04-02T01:53:08.198Z,100594.09
2018-04-02T01:55:36.673Z,100599.30
2018-04-02T01:58:04.960Z,100599.80
2018-04-02T02:00:33.265Z,100600.52
2018-04-02T02:03:01.545Z,100601.70
2018-04-02T02:05:29.848Z,100603.88
2018-04-02T02:07:58.120Z,100609.86
2018-04-02T02:10:26.536Z,100599.34
2018-04-02T02:12:54.884Z,100605.16
2018-04-02T02:15:23.293Z,100610.98
2018-04-02T02:17:51.568Z,100610.08
2018-04-02T02:20:19.848Z,100612.56
2018-04-02T02:22:48.205Z,100606.56
2018-04-02T02:25:16.525Z,100607.98
2018-04-02T02:27:44.896Z,100610.64
2018-04-02T02:30:13.249Z,100609.52
2018-04-02T02:32:41.554Z,100607.63
2018-04-02T02:35:10.906Z,100604.16
2018-04-02T02:37:39.186Z,100606.23
2018-04-02T02:40:07.492Z,100611.31
2018-04-02T02:42:35.797Z,100613.19
2018-04-02T02:45:04.279Z,100615.88
2018-04-02T02:47:32.547Z,100617.00
2018-04-02T02:50:01.331Z,100624.36
2018-04-02T02:52:29.685Z,100624.42
2018-04-02T02:54:57.952Z,100629.88
2018-04-02T02:57:26.333Z,100638.27
2018-04-02T02:59:54.616Z,100638.56
2018-04-02T03:02:22.962Z,100640.15
2018-04-02T03:04:51.258Z,100634.86
2018-04-02T03:07:19.632Z,100632.54
2018-04-02T03:09:47.913Z,100634.72
2018-04-02T03:12:16.260Z,100635.27
2018-04-02T03:14:44.604Z,100631.47
2018-04-02T03:17:12.969Z,100635.93
2018-04-02T03:19:41.273Z,100630.06
2018-04-02T03:22:09.608Z,100638.19
2018-04-02T03:24:37.881Z,100632.21
2018-04-02T03:27:06.361Z,100630.95
2018-04-02T03:29:34.668Z,100634.58
2018-04-02T03:32:03.128Z,100639.15
2018-04-02T03:34:31.412Z,100640.40
2018-04-02T03:36:59.747Z,100646.64
2018-04-02T03:39:28.048Z,100640.42
2018-04-02T03:41:56.368Z,100649.02
2018-04-02T03:44:24.612Z,100646.45
2018-04-02T03:46:52.973Z,100647.06
2018-04-02T03:49:21.273Z,100652.76
2018-04-02T03:51:49.583Z,100658.62
2018-04-02T03:54:17.839Z,100665.36
2018-04-02T03:56:46.297Z,100664.70
2018-04-02T03:59:14.744Z,100657.73
2018-04-02T04:01:43.072Z,100657.16
2018-04-02T04:04:11.348Z,100665.91
2018-04-02T04:06:39.684Z,100664.87
2018-04-02T04:09:07.961Z,100664.27
2018-04-02T04:11:36.288Z,100667.09
2018-04-02T04:14:04.539Z,100666.36
2018-04-02T04:16:32.913Z,100670.63
2018-04-02T04:19:01.205Z,100669.84
2018-04-02T04:21:29.532Z,100674.36
2018-04-02T04:23:57.793Z,100671.53
2018-04-02T04:26:26.229Z,100666.20
2018-04-02T04:28:54.513Z,100672.05
2018-04-02T04:31:22.861Z,100674.77
2018-04-02T04:33:51.152Z,100683.30
2018-04-02T04:36:19.515Z,100689.06
2018-04-02T04:38:47.816Z,100681.27
2018-04-02T04:41:16.117Z,100683.75
2018-04-02T04:43:44.548Z,100683.01
2018-04-02T04:46:12.871Z,100688.30
2018-04-02T04:48:41.321Z,100694.05
2018-04-02T04:51:09.768Z,100690.58
2018-04-02T04:53:38.273Z,100699.53
2018-04-02T04:56:06.713Z,100699.48
2018-04-02T04:58:34.996Z,100700.45
2018-04-02T05:01:03.365Z,100694.66
2018-04-02T05:03:31.786Z,100698.52
2018-04-02T05:06:00.722Z,100699.53
2018-04-02T05:08:29.010Z,100702.09
2018-04-02T05:10:57.349Z,100699.39
2018-04-02T05:13:25.622Z,100706.01
2018-04-02T05:15:54.101Z,100701.73
2018-04-02T05:18:22.392Z,100705.65
2018-04-02T05:20:50.764Z,100708.98
2018-04-02T05:23:19.040Z,100687.03
2018-04-02T05:25:47.367Z,100713.72
2018-04-02T05:28:15.643Z,100713.98
2018-04-02T05:30:44.116Z,100712.66
2018-04-02T05:33:12.562Z,100711.86
2018-04-02T05:35:41.161Z,100717.51
2018-04-02T05:38:09.545Z,100725.29
2018-04-02T05:40:37.843Z,100727.09
2018-04-02T05:43:06.105Z,100727.75
2018-04-02T05:45:35.310Z,100728.09
2018-04-02T05:48:03.682Z,100733.67
2018-04-02T05:50:32.024Z,100727.38
2018-04-02T05:53:00.318Z,100731.51
2018-04-02T05:55:28.675Z,100730.41
2018-04-02T05:57:57.157Z,100739.86
2018-04-02T06:00:25.870Z,100732.00
2018-04-02T06:02:54.253Z,100734.37
2018-04-02T06:05:22.685Z,100714.25
2018-04-02T06:07:50.949Z,100736.22
2018-04-02T06:10:19.304Z,100737.41
2018-04-02T06:12:47.581Z,100735.99
2018-04-02T06:15:15.901Z,100734.27
2018-04-02T06:17:44.164Z,100741.70
2018-04-02T06:20:13.422Z,100743.72
2018-04-02T06:22:41.727Z,100745.23
2018-04-02T06:25:10.150Z,100745.41
2018-04-02T06:27:43.819Z,100737.25
2018-04-02T06:30:17.868Z,100748.52
2018-04-02T06:32:46.986Z,100749.06
2018-04-02T06:35:15.632Z,100757.81
2018-04-02T06:37:45.384Z,100755.89
2018-04-02T06:40:13.698Z,100749.64
2018-04-02T06:42:41.972Z,100750.88
2018-04-02T06:45:10.271Z,100748.47
2018-04-02T06:47:38.559Z,100751.17
2018-04-02T06:50:06.920Z,100750.64
2018-04-02T06:52:35.264Z,100751.69
2018-04-02T06:55:03.520Z,100755.30
2018-04-02T06:57:31.856Z,100753.14
2018-04-02T07:00:00.096Z,100760.13
2018-04-02T07:02:28.454Z,100758.89
2018-04-02T07:04:56.736Z,100755.98
2018-04-02T07:07:25.396Z,100763.39
2018-04-02T07:09:53.638Z,100761.45
2018-04-02T07:12:21.968Z,100769.22
2018-04-02T07:14:50.357Z,100762.09
2018-04-02T07:17:18.867Z,100770.77
2018-04-02T07:19:47.124Z,100774.34
2018-04-02T07:22:15.687Z,100771.94
2018-04-02T07:24:44.081Z,100760.51
2018-04-02T07:27:12.469Z,100769.85
2018-04-02T07:29:40.841Z,100768.70
2018-04-02T07:32:09.261Z,100764.52
2018-04-02T07:34:37.556Z,100762.59
2018-04-02T07:37:05.912Z,100769.32
2018-04-02T07:39:34.201Z,100768.38
2018-04-02T07:42:02.586Z,100768.66
2018-04-02T07:44:30.889Z,100771.66
2018-04-02T07:46:59.216Z,100772.34
2018-04-02T07:49:27.716Z,100777.30
2018-04-02T07:51:56.111Z,100775.36
2018-04-02T07:54:24.438Z,100776.23
2018-04-02T07:56:52.778Z,100784.56
2018-04-02T07:59:21.122Z,100786.98
2018-04-02T08:01:49.487Z,100784.39
2018-04-02T08:04:17.831Z,100791.30
2018-04-02T08:06:46.268Z,100791.18
2018-04-02T08:09:14.607Z,100798.14
2018-04-02T08:11:42.927Z,100799.13
2018-04-02T08:14:11.382Z,100798.48
2018-04-02T08:16:39.906Z,100800.38
2018-04-02T08:19:08.211Z,100806.34
2018-04-02T08:21:36.929Z,100804.87
2018-04-02T08:24:05.184Z,100804.77
2018-04-02T08:26:33.641Z,100806.14
2018-04-02T08:29:01.921Z,100806.34
2018-04-02T08:31:30.237Z,100809.39
2018-04-02T08:33:58.692Z,100807.63
2018-04-02T08:36:27.138Z,100803.88
2018-04-02T08:38:55.678Z,100803.20
2018-04-02T08:41:24.156Z,100808.62
2018-04-02T08:43:52.517Z,100811.75
2018-04-02T08:46:20.793Z,100817.00
2018-04-02T08:48:49.094Z,100811.23
2018-04-02T08:51:17.432Z,100816.45
2018-04-02T08:53:45.848Z,100814.71
2018-04-02T08:56:14.134Z,100814.80
2018-04-02T08:58:42.405Z,100813.39
2018-04-02T09:01:11.004Z,100815.11
2018-04-02T09:03:39.332Z,100810.87
2018-04-02T09:06:07.698Z,100816.73
2018-04-02T09:08:35.988Z,100818.30
2018-04-02T09:11:04.268Z,100817.16
2018-04-02T09:13:32.528Z,100818.66
2018-04-02T09:16:00.800Z,100805.50
2018-04-02T09:18:29.084Z,100810.76
2018-04-02T09:20:57.395Z,100809.23
2018-04-02T09:23:25.865Z,100804.27
2018-04-02T09:25:54.298Z,100803.70
2018-04-02T09:28:22.593Z,100796.75
2018-04-02T09:30:50.892Z,100801.92
2018-04-02T09:33:19.361Z,100801.42
2018-04-02T09:35:47.675Z,100795.23
2018-04-02T09:38:15.972Z,100785.70
2018-04-02T09:40:44.281Z,100782.89
2018-04-02T09:43:12.671Z,100787.61
2018-04-02T09:45:40.969Z,100785.39
2018-04-02T09:48:09.353Z,100791.98
2018-04-02T09:50:37.631Z,100789.55
2018-04-02T09:53:05.910Z,100788.16
2018-04-02T09:55:34.596Z,100788.30
2018-04-02T09:58:02.935Z,100780.80
2018-04-02T10:00:33.674Z,100783.17
2018-04-02T10:03:01.920Z,100771.02
2018-04-02T10:05:31.214Z,100774.03
2018-04-02T10:07:59.490Z,100773.52
2018-04-02T10:10:27.935Z,100779.63
2018-04-02T10:12:56.138Z,100768.32
2018-04-02T10:15:24.475Z,100762.87
2018-04-02T10:17:52.811Z,100772.98
2018-04-02T10:20:21.125Z,100758.63
2018-04-02T10:22:49.456Z,100766.15
2018-04-02T10:25:17.772Z,100767.09
2018-04-02T10:27:46.040Z,100763.95
2018-04-02T10:30:14.363Z,100768.45
2018-04-02T10:32:42.612Z,100767.21
2018-04-02T10:35:10.917Z,100762.35
2018-04-02T10:37:39.248Z,100754.77
2018-04-02T10:40:07.578Z,100752.34
2018-04-02T10:42:35.900Z,100761.70
2018-04-02T10:45:10.988Z,100757.45
2018-04-02T10:47:39.874Z,100748.16
2018-04-02T10:50:08.260Z,100747.89
2018-04-02T10:52:36.584Z,100743.27
2018-04-02T10:55:05.852Z,100742.14
2018-04-02T10:57:34.316Z,100744.07
2018-04-02T11:00:03.828Z,100735.84
2018-04-02T11:02:32.153Z,100740.03
2018-04-02T11:05:00.518Z,100734.75
2018-04-02T11:07:28.985Z,100727.40
2018-04-02T11:09:57.327Z,100725.46
2018-04-02T11:12:25.719Z,100727.83
2018-04-02T11:14:57.099Z,100719.48
2018-04-02T11:17:25.414Z,100713.37
2018-04-02T11:19:53.667Z,100721.65
2018-04-02T11:22:21.982Z,100712.44
2018-04-02T11:24:50.312Z,100714.37
2018-04-02T11:27:18.652Z,100726.09
2018-04-02T11:29:46.914Z,100715.83
2018-04-02T11:32:15.485Z,100714.45
2018-04-02T11:34:43.796Z,100712.98
2018-04-02T11:37:12.268Z,100706.92
2018-04-02T11:39:40.658Z,100713.09
2018-04-02T11:42:23.907Z,100709.84
2018-04-02T11:44:52.201Z,100713.12
2018-04-02T11:47:20.579Z,100711.12
2018-04-02T11:49:48.988Z,100704.13
2018-04-02T11:52:17.354Z,100700.77
2018-04-02T11:54:45.642Z,100702.05
2018-04-02T11:57:14.021Z,100697.13
2018-04-02T11:59:42.548Z,100690.22
2018-04-02T12:02:10.861Z,100696.05
2018-04-02T12:04:39.153Z,100698.77
2018-04-02T12:07:07.454Z,100693.92
2018-04-02T12:09:35.780Z,100702.00
2018-04-02T12:12:04.098Z,100694.30
2018-04-02T12:14:32.394Z,100691.23
2018-04-02T12:17:00.689Z,100692.08
2018-04-02T12:19:28.989Z,100694.49
2018-04-02T12:21:57.273Z,100696.55
2018-04-02T12:24:25.584Z,100690.76
2018-04-02T12:26:53.892Z,100687.20
2018-04-02T12:29:22.405Z,100693.03
2018-04-02T12:31:50.701Z,100690.30
2018-04-02T12:34:18.985Z,100683.72
2018-04-02T12:36:47.276Z,100679.67
2018-04-02T12:39:15.587Z,100667.86
2018-04-02T12:41:44.026Z,100671.13
2018-04-02T12:44:12.616Z,100680.55
2018-04-02T12:46:40.964Z,100677.06
2018-04-02T12:49:09.268Z,100670.10
2018-04-02T12:51:37.740Z,100668.55
2018-04-02T12:54:06.028Z,100664.26
2018-04-02T12:56:34.881Z,100657.98
2018-04-02T12:59:03.455Z,100663.73
2018-04-02T13:01:31.732Z,100658.00
2018-04-02T13:04:00.085Z,100658.75
2018-04-02T13:06:28.372Z,100667.65
2018-04-02T13:08:56.628Z,100659.67
2018-04-02T13:11:24.952Z,100656.20
2018-04-02T13:13:53.281Z,100651.75
2018-04-02T13:16:21.585Z,100653.75
2018-04-02T13:18:49.854Z,100634.19
2018-04-02T13:21:18.176Z,100644.91
2018-04-02T13:23:46.466Z,100637.09
2018-04-02T13:26:14.751Z,100648.23
2018-04-02T13:28:43.127Z,100645.38
2018-04-02T13:31:11.521Z,100634.02
2018-04-02T13:33:39.821Z,100634.55
2018-04-02T13:36:08.120Z,100630.20
2018-04-02T13:38:36.416Z,100642.64
2018-04-02T13:41:04.963Z,100641.13
2018-04-02T13:43:34.403Z,100641.61
2018-04-02T13:46:02.896Z,100631.84
2018-04-02T13:48:31.327Z,100624.80
2018-04-02T13:50:59.717Z,100621.84
2018-04-02T13:53:28.065Z,100624.55
2018-04-02T13:55:56.471Z,100619.94
2018-04-02T13:58:25.431Z,100605.89
2018-04-02T14:00:54.192Z,100615.76
2018-04-02T14:03:22.719Z,100598.00
2018-04-02T14:05:51.188Z,100611.06
2018-04-02T14:08:19.497Z,100619.39
2018-04-02T14:10:47.814Z,100612.23
2018-04-02T14:13:16.167Z,100612.31
2018-04-02T14:15:44.849Z,100599.98
2018-04-02T14:18:13.284Z,100593.28
2018-04-02T14:20:41.608Z,100595.44
2018-04-02T14:23:09.952Z,100591.11
2018-04-02T14:25:38.253Z,100585.22
2018-04-02T14:28:06.674Z,100590.03
2018-04-02T14:30:35.008Z,100587.38
2018-04-02T14:33:03.556Z,100575.11
2018-04-02T14:35:31.865Z,100574.28
2018-04-02T14:38:00.155Z,100567.88
2018-04-02T14:40:28.467Z,100559.22
2018-04-02T14:42:57.015Z,100555.31
2018-04-02T14:45:25.313Z,100560.80
2018-04-02T14:47:53.914Z,100563.23
2018-04-02T14:50:22.252Z,100570.25
2018-04-02T14:52:50.696Z,100557.14
2018-04-02T14:55:19.004Z,100562.48
2018-04-02T14:57:47.285Z,100552.60
2018-04-02T15:00:15.679Z,100545.34
2018-04-02T15:02:45.143Z,100545.12
2018-04-02T15:05:14.338Z,100541.44
2018-04-02T15:07:43.017Z,100538.27
2018-04-02T15:10:11.467Z,100540.15
2018-04-02T15:12:39.773Z,100534.55
2018-04-02T15:15:08.151Z,100530.56
2018-04-02T15:17:36.513Z,100531.02
2018-04-02T15:20:04.861Z,100527.11
2018-04-02T15:22:33.225Z,100531.09
2018-04-02T15:25:01.528Z,100527.97
2018-04-02T15:27:30.082Z,100519.86
2018-04-02T15:29:58.365Z,100510.84
2018-04-02T15:32:26.702Z,100517.09
2018-04-02T15:34:55.834Z,100511.61
2018-04-02T15:37:24.207Z,100503.71
2018-04-02T15:39:52.829Z,100508.47
2018-04-02T15:42:21.797Z,100509.27
2018-04-02T15:44:50.873Z,100513.06
2018-04-02T15:47:19.222Z,100507.23
2018-04-02T15:49:47.565Z,100504.03
2018-04-02T15:52:16.499Z,100501.34
2018-04-02T15:54:44.876Z,100493.28
2018-04-02T15:57:13.309Z,100489.22
2018-04-02T15:59:41.553Z,100495.38
2018-04-02T16:02:09.909Z,100499.69
2018-04-02T16:04:38.276Z,100489.77
2018-04-02T16:07:06.638Z,100481.22
2018-04-02T16:09:34.985Z,100478.03
2018-04-02T16:12:03.367Z,100474.84
2018-04-02T16:14:31.629Z,100477.36
2018-04-02T16:16:59.975Z,100477.22
2018-04-02T16:19:28.262Z,100473.20
2018-04-02T16:21:56.801Z,100466.14
2018-04-02T16:24:25.266Z,100468.62
2018-04-02T16:26:53.637Z,100473.41
2018-04-02T16:30:25.013Z,100469.51
2018-04-02T16:32:53.324Z,100460.27
2018-04-02T16:35:21.668Z,100460.77
2018-04-02T16:37:50.021Z,100455.24
2018-04-02T16:40:19.901Z,100456.73
2018-04-02T16:42:48.496Z,100457.31
2018-04-02T16:45:16.936Z,100460.63
2018-04-02T16:47:45.258Z,100464.40
2018-04-02T16:50:13.617Z,100461.48
2018-04-02T16:52:41.913Z,100460.33
2018-04-02T16:55:10.289Z,100469.02
2018-04-02T16:57:38.563Z,100465.98
2018-04-02T17:00:06.944Z,100461.36
2018-04-02T17:02:35.233Z,100459.27
2018-04-02T17:05:03.559Z,100459.27
2018-04-02T17:07:31.889Z,100457.11
2018-04-02T17:10:00.177Z,100463.36
2018-04-02T17:12:28.569Z,100463.75
2018-04-02T17:14:56.953Z,100456.56
2018-04-02T17:17:25.348Z,100456.37
2018-04-02T17:19:53.757Z,100453.82
2018-04-02T17:22:23.047Z,100452.94
2018-04-02T17:24:51.608Z,100456.98
2018-04-02T17:27:21.925Z,100456.05
2018-04-02T17:29:52.633Z,100454.99
2018-04-02T17:32:21.501Z,100459.64
2018-04-02T17:34:49.829Z,100458.91
2018-04-02T17:37:18.127Z,100462.31
2018-04-02T17:39:46.454Z,100457.75
2018-04-02T17:42:14.792Z,100462.00
2018-04-02T17:44:43.115Z,100459.02
2018-04-02T17:47:11.398Z,100465.25
2018-04-02T17:49:39.791Z,100459.81
2018-04-02T17:52:08.837Z,100454.11
2018-04-02T17:54:37.275Z,100446.81
2018-04-02T17:57:05.629Z,100440.39
2018-04-02T17:59:33.925Z,100446.60
2018-04-02T18:02:02.224Z,100451.04
2018-04-02T18:04:32.046Z,100446.34
2018-04-02T18:07:03.258Z,100453.69
2018-04-02T18:09:34.515Z,100458.60
2018-04-02T18:12:03.153Z,100452.27
2018-04-02T18:14:31.489Z,100459.30
2018-04-02T18:17:01.381Z,100462.94
2018-04-02T18:19:29.791Z,100454.86
2018-04-02T18:21:58.635Z,100449.66
2018-04-02T18:24:27.038Z,100449.61
2018-04-02T18:26:55.415Z,100444.22
2018-04-02T18:29:25.142Z,100438.03
2018-04-02T18:31:53.455Z,100435.52
2018-04-02T18:34:21.717Z,100432.53
2018-04-02T18:36:52.190Z,100425.83
2018-04-02T18:39:20.932Z,100420.58
2018-04-02T18:41:54.983Z,100418.08
2018-04-02T18:44:23.285Z,100407.66
2018-04-02T18:46:51.637Z,100405.42
2018-04-02T18:49:19.960Z,100406.55
2018-04-02T18:51:48.268Z,100412.67
2018-04-02T18:54:16.560Z,100407.78
2018-04-02T18:56:44.908Z,100396.13
2018-04-02T18:59:13.272Z,100400.83
2018-04-02T19:01:43.554Z,100399.05
2018-04-02T19:04:12.892Z,100399.31
2018-04-02T19:06:43.277Z,100406.92
2018-04-02T19:09:13.110Z,100397.00
2018-04-02T19:11:42.184Z,100404.11
2018-04-02T19:14:10.476Z,100407.52
2018-04-02T19:16:38.844Z,100414.53
2018-04-02T19:19:07.203Z,100413.58
2018-04-02T19:21:38.747Z,100409.30
2018-04-02T19:24:08.330Z,100412.58
2018-04-02T19:26:36.716Z,100401.38
2018-04-02T19:29:06.121Z,100405.94
2018-04-02T19:31:34.438Z,100392.63
2018-04-02T19:34:02.846Z,100395.58
2018-04-02T19:36:31.190Z,100399.19
2018-04-02T19:39:01.172Z,100399.59
2018-04-02T19:41:32.282Z,100391.45
2018-04-02T19:44:01.228Z,100394.45
2018-04-02T19:46:31.169Z,100385.06
2018-04-02T19:49:01.434Z,100389.53
2018-04-02T19:51:31.343Z,100384.84
2018-04-02T19:53:59.700Z,100378.20
2018-04-02T19:56:28.756Z,100378.70
2018-04-02T19:58:57.505Z,100368.42
2018-04-02T20:01:25.920Z,100366.86
2018-04-02T20:03:54.306Z,100368.09
2018-04-02T20:06:23.009Z,100361.67
2018-04-02T20:08:51.303Z,100364.95
2018-04-02T20:11:19.700Z,100359.91
2018-04-02T20:13:48.664Z,100351.88
2018-04-02T20:16:17.078Z,100360.30
2018-04-02T20:18:45.680Z,100355.44
2018-04-02T20:21:14.021Z,100345.28
2018-04-02T20:23:43.862Z,100343.27
2018-04-02T20:26:12.714Z,100347.61
2018-04-02T20:28:42.080Z,100348.87
2018-04-02T20:31:18.768Z,100338.36
2018-04-02T20:33:47.280Z,100338.35
2018-04-02T20:36:18.392Z,100335.42
2018-04-02T20:38:47.303Z,100344.55
2018-04-02T20:41:15.608Z,100339.72
2018-04-02T20:43:44.249Z,100330.94
2018-04-02T20:46:12.548Z,100329.06
2018-04-02T20:48:40.892Z,100330.96
2018-04-02T20:51:09.220Z,100330.83
2018-04-02T20:53:37.825Z,100332.33
2018-04-02T20:56:06.173Z,100318.67
2018-04-02T20:58:34.456Z,100319.91
2018-04-02T21:01:03.197Z,100314.97
2018-04-02T21:03:31.931Z,100312.48
2018-04-02T21:06:00.253Z,100305.30
2018-04-02T21:08:28.749Z,100309.34
2018-04-02T21:10:57.294Z,100310.33
2018-04-02T21:13:25.952Z,100302.06
2018-04-02T21:15:54.560Z,100296.68
2018-04-02T21:18:23.237Z,100302.38
2018-04-02T21:20:52.376Z,100293.00
2018-04-02T21:25:59.436Z,100280.96
2018-04-02T21:28:28.142Z,100282.02
2018-04-02T21:30:56.776Z,100278.30
2018-04-02T21:33:25.378Z,100276.36
2018-04-02T21:35:53.757Z,100274.83
2018-04-02T21:38:22.053Z,100262.69
2018-04-02T21:40:50.487Z,100262.52
2018-04-02T21:43:18.893Z,100259.20
2018-04-02T21:45:47.942Z,100261.49
2018-04-02T21:48:17.542Z,100247.98
2018-04-02T21:50:47.916Z,100244.37
2018-04-02T21:53:17.123Z,100239.80
2018-04-02T21:55:46.087Z,100236.08
2018-04-02T21:58:14.744Z,100233.53
2018-04-02T22:00:44.907Z,100232.78
2018-04-02T22:03:15.353Z,100229.30
2018-04-02T22:05:44.670Z,100228.34
2018-04-02T22:08:13.949Z,100221.48
2018-04-02T22:10:42.545Z,100220.37
2018-04-02T22:13:11.633Z,100221.66
2018-04-02T22:15:41.223Z,100218.88
2018-04-02T22:18:10.668Z,100203.37
2018-04-02T22:20:39.252Z,100210.20
2018-04-02T22:23:07.523Z,100215.91
2018-04-02T22:25:35.840Z,100212.64
2018-04-02T22:28:05.397Z,100211.60
2018-04-02T22:30:34.628Z,100202.06
2018-04-02T22:33:03.201Z,100197.59
2018-04-02T22:35:37.733Z,100195.63
2018-04-02T22:38:06.930Z,100198.83
2018-04-02T22:40:38.630Z,100185.09
2018-04-02T22:43:10.850Z,100183.87
2018-04-02T22:45:40.476Z,100178.14
2018-04-02T22:48:09.326Z,100173.75
2018-04-02T22:50:39.700Z,100174.42
2018-04-02T22:53:08.483Z,100164.44
2018-04-02T22:55:38.498Z,100165.25
2018-04-02T22:58:07.588Z,100157.04
2018-04-02T23:00:36.557Z,100159.06
2018-04-02T23:03:05.410Z,100156.53
2018-04-02T23:05:33.806Z,100146.96
2018-04-02T23:08:02.150Z,100149.55
2018-04-02T23:10:30.501Z,100142.20
2018-04-02T23:12:58.916Z,100146.69
2018-04-02T23:15:30.037Z,100143.00
2018-04-02T23:17:58.345Z,100140.52
2018-04-02T23:20:26.848Z,100137.83
2018-04-02T23:22:55.281Z,100130.67
2018-04-02T23:25:23.597Z,100128.77
2018-04-02T23:27:51.865Z,100123.22
2018-04-02T23:30:20.156Z,100128.13
2018-04-02T23:32:48.427Z,100126.83
2018-04-02T23:35:16.820Z,100119.34
2018-04-02T23:37:45.157Z,100114.05
2018-04-02T23:40:13.560Z,100110.75
2018-04-02T23:42:41.920Z,100112.52
2018-04-02T23:45:10.400Z,100109.36
2018-04-02T23:47:38.718Z,100111.69
2018-04-02T23:50:07.037Z,100108.09
2018-04-02T23:52:35.346Z,100104.82
2018-04-02T23:55:03.677Z,100099.38
2018-04-02T23:57:32.044Z,100098.86
